Time;durP1;ratioP1;P1;durP2;ratioP2;P2;SDS_P1;SDS_P2;PMS_P1;PMS_P2;Temp;Humidity;BMP_temperature;BMP_pressure;BME280_temperature;BME280_humidity;BME280_pressure;Samples;Min_cycle;Max_cycle;Signal;HPM_P1;HPM_P2
2021/04/12 00:02:27;;;;;;;4.90;2.80;;;7.90;99.90;;;;;;5012674;28;20025;-74
2021/04/12 00:05:08;;;;;;;3.20;2.20;;;7.90;99.90;;;;;;5006952;28;20045;-74
2021/04/12 00:07:39;;;;;;;3.13;2.53;;;7.80;99.90;;;;;;5019131;28;20475;-73
2021/04/12 00:10:04;;;;;;;3.00;2.47;;;7.70;99.90;;;;;;5022989;28;20061;-74
2021/04/12 00:12:53;;;;;;;3.92;2.60;;;7.80;99.90;;;;;;5015077;28;20400;-74
2021/04/12 00:15:32;;;;;;;2.70;2.38;;;7.80;99.90;;;;;;5019560;28;20553;-74
2021/04/12 00:18:04;;;;;;;3.28;2.25;;;7.80;99.90;;;;;;5022138;28;20211;-74
2021/04/12 00:21:04;;;;;;;2.67;2.10;;;7.70;99.90;;;;;;5019291;28;20026;-74
2021/04/12 00:23:42;;;;;;;2.83;2.03;;;7.60;99.90;;;;;;5010825;28;20029;-74
2021/04/12 00:26:22;;;;;;;3.58;2.40;;;7.50;99.90;;;;;;5020192;28;20033;-74
2021/04/12 00:28:53;;;;;;;2.45;2.17;;;7.60;99.90;;;;;;5024756;28;20033;-75
2021/04/12 00:31:36;;;;;;;2.78;2.40;;;7.50;99.90;;;;;;5020385;28;20029;-75
2021/04/12 00:34:19;;;;;;;2.85;2.55;;;7.40;99.90;;;;;;5023095;28;20037;-75
2021/04/12 00:37:03;;;;;;;2.65;2.33;;;7.30;99.90;;;;;;5023760;28;20052;-75
2021/04/12 00:39:36;;;;;;;3.28;2.90;;;7.30;99.90;;;;;;5019891;28;20431;-75
2021/04/12 00:42:11;;;;;;;3.75;2.53;;;7.30;99.90;;;;;;5015820;28;20443;-75
2021/04/12 00:45:20;;;;;;;2.85;2.35;;;7.30;99.90;;;;;;5013171;28;20069;-75
2021/04/12 00:48:25;;;;;;;2.83;2.08;;;7.40;99.90;;;;;;4950161;28;20383;-75
2021/04/12 00:51:26;;;;;;;3.30;2.58;;;7.30;99.90;;;;;;5021301;28;20042;-75
2021/04/12 00:54:19;;;;;;;5.35;2.58;;;7.30;99.90;;;;;;5023512;28;20045;-75
2021/04/12 00:57:02;;;;;;;3.33;2.28;;;7.10;99.90;;;;;;5010477;28;20026;-75
2021/04/12 00:59:49;;;;;;;4.22;2.70;;;7.10;99.90;;;;;;5015467;28;20025;-75
2021/04/12 01:02:54;;;;;;;3.50;2.58;;;7.20;99.90;;;;;;5026755;28;20032;-75
2021/04/12 01:05:58;;;;;;;3.42;2.45;;;7.20;99.90;;;;;;5023142;28;20056;-75
2021/04/12 01:09:11;;;;;;;3.80;2.38;;;7.20;99.90;;;;;;4968064;28;20029;-75
2021/04/12 01:12:08;;;;;;;3.58;2.70;;;7.10;99.90;;;;;;5022542;28;20109;-75
2021/04/12 01:14:56;;;;;;;3.63;2.72;;;7.10;99.90;;;;;;5021410;28;20074;-75
2021/04/12 01:17:48;;;;;;;3.38;2.60;;;7.10;99.90;;;;;;5022767;28;20396;-75
2021/04/12 01:20:45;;;;;;;4.68;2.67;;;7.10;99.90;;;;;;5018017;28;20033;-75
2021/04/12 01:23:39;;;;;;;4.70;2.83;;;7.10;99.90;;;;;;5013957;28;20029;-75
2021/04/12 01:26:34;;;;;;;2.88;2.42;;;7.10;99.90;;;;;;5016038;28;20138;-75
2021/04/12 01:29:41;;;;;;;3.33;2.50;;;7.00;99.90;;;;;;4996747;28;20022;-75
2021/04/12 01:32:53;;;;;;;3.55;2.70;;;7.00;99.90;;;;;;5014026;28;20025;-75
2021/04/12 01:35:33;;;;;;;4.25;2.00;;;7.00;99.90;;;;;;5018058;28;20385;-75
2021/04/12 01:38:02;;;;;;;2.97;2.40;;;6.90;99.90;;;;;;5021950;28;20764;-75
2021/04/12 01:40:57;;;;;;;2.72;2.22;;;6.80;99.90;;;;;;5020734;28;20021;-74
2021/04/12 01:43:55;;;;;;;3.40;2.28;;;6.70;99.90;;;;;;5012785;28;20041;-75
2021/04/12 01:46:36;;;;;;;3.10;2.20;;;6.80;99.90;;;;;;5025191;28;20441;-75
2021/04/12 01:49:07;;;;;;;3.13;2.63;;;6.80;99.90;;;;;;5019170;28;20848;-75
2021/04/12 01:52:05;;;;;;;3.20;2.58;;;6.80;99.90;;;;;;5017368;28;20127;-75
2021/04/12 01:54:53;;;;;;;3.28;2.40;;;6.80;99.90;;;;;;5006758;28;20087;-75
2021/04/12 01:57:37;;;;;;;3.08;2.40;;;6.80;99.90;;;;;;5015167;28;20017;-75
2021/04/12 02:00:25;;;;;;;3.28;2.53;;;6.80;99.90;;;;;;5017757;28;20079;-76
2021/04/12 02:03:24;;;;;;;2.22;2.03;;;6.80;99.90;;;;;;5017704;28;20017;-75
2021/04/12 02:06:04;;;;;;;3.20;2.45;;;6.80;99.90;;;;;;5017781;28;20056;-75
2021/04/12 02:08:41;;;;;;;2.30;1.98;;;6.80;99.90;;;;;;5024051;28;20091;-75
2021/04/12 02:11:33;;;;;;;4.05;2.20;;;6.80;99.90;;;;;;5018089;28;20469;-74
2021/04/12 02:14:39;;;;;;;3.67;2.20;;;6.70;99.90;;;;;;5018788;28;20039;-76
2021/04/12 02:17:31;;;;;;;3.55;2.38;;;6.70;99.90;;;;;;5017807;28;20062;-75
2021/04/12 02:20:14;;;;;;;3.08;2.00;;;6.60;99.90;;;;;;5019236;28;20068;-75
2021/04/12 02:22:56;;;;;;;3.30;2.47;;;6.60;99.90;;;;;;5014207;28;20071;-75
2021/04/12 02:25:51;;;;;;;2.38;2.15;;;6.60;99.90;;;;;;5020796;28;20030;-75
2021/04/12 02:28:38;;;;;;;2.88;2.15;;;6.70;99.90;;;;;;5016550;28;20488;-76
2021/04/12 02:31:38;;;;;;;2.10;1.90;;;6.70;99.90;;;;;;5018316;28;20029;-75
2021/04/12 02:34:37;;;;;;;3.33;2.28;;;6.70;99.90;;;;;;5016466;28;20040;-75
2021/04/12 02:37:15;;;;;;;3.10;2.22;;;6.60;99.90;;;;;;5016488;28;20026;-75
2021/04/12 02:40:01;;;;;;;2.45;2.15;;;6.60;99.90;;;;;;5018847;28;20017;-75
2021/04/12 02:42:56;;;;;;;3.13;2.42;;;6.60;99.90;;;;;;5021314;28;20108;-75
2021/04/12 02:45:43;;;;;;;3.55;2.85;;;6.60;99.90;;;;;;5017737;28;20022;-73
2021/04/12 02:48:27;;;;;;;2.30;2.10;;;6.60;99.90;;;;;;5015921;28;20023;-75
2021/04/12 02:51:13;;;;;;;3.30;2.20;;;6.70;99.90;;;;;;5019060;28;20084;-75
2021/04/12 02:53:51;;;;;;;2.78;2.10;;;6.70;99.90;;;;;;5023064;28;20083;-75
2021/04/12 02:56:33;;;;;;;3.75;2.25;;;6.70;99.90;;;;;;5011016;28;20080;-73
2021/04/12 02:59:29;;;;;;;5.55;2.40;;;6.70;99.90;;;;;;5023725;28;20484;-76
2021/04/12 03:02:09;;;;;;;2.83;2.22;;;6.70;99.90;;;;;;5019729;28;20029;-75
2021/04/12 03:04:59;;;;;;;3.03;2.05;;;6.70;99.90;;;;;;5021084;28;20025;-75
2021/04/12 03:07:46;;;;;;;2.35;2.05;;;6.60;99.90;;;;;;5017207;28;20040;-76
2021/04/12 03:10:43;;;;;;;3.90;2.33;;;6.60;99.90;;;;;;5014451;28;20091;-75
2021/04/12 03:13:43;;;;;;;3.70;2.80;;;6.60;99.90;;;;;;5021712;28;20048;-75
2021/04/12 03:16:46;;;;;;;4.00;2.40;;;6.70;99.90;;;;;;5012107;28;20028;-75
2021/04/12 03:19:51;;;;;;;3.67;2.50;;;6.70;99.90;;;;;;5014955;28;20527;-75
2021/04/12 03:22:45;;;;;;;5.63;2.75;;;6.70;99.90;;;;;;5016121;28;20027;-75
2021/04/12 03:25:41;;;;;;;2.95;2.25;;;6.70;99.90;;;;;;5020054;28;20036;-76
2021/04/12 03:28:30;;;;;;;2.97;2.17;;;6.70;99.90;;;;;;5021887;28;20677;-75
2021/04/12 03:31:31;;;;;;;3.00;2.40;;;6.70;99.90;;;;;;5021689;28;20164;-75
2021/04/12 03:34:19;;;;;;;4.47;2.40;;;6.80;99.90;;;;;;5002381;28;20059;-75
2021/04/12 03:36:54;;;;;;;2.70;2.33;;;6.80;99.90;;;;;;5030091;28;20484;-76
2021/04/12 03:39:26;;;;;;;3.08;2.40;;;6.90;99.90;;;;;;5018461;28;20037;-74
2021/04/12 03:42:18;;;;;;;2.85;2.28;;;6.80;99.90;;;;;;5017764;28;20112;-74
2021/04/12 03:45:02;;;;;;;4.53;2.42;;;6.80;99.90;;;;;;5016308;28;20397;-74
2021/04/12 03:47:51;;;;;;;4.63;2.58;;;6.70;99.90;;;;;;5019227;28;20052;-75
2021/04/12 03:50:59;;;;;;;4.25;2.30;;;6.70;99.90;;;;;;5013891;28;20025;-75
2021/04/12 03:53:53;;;;;;;3.75;2.35;;;6.70;99.90;;;;;;5006910;28;20038;-76
2021/04/12 03:56:27;;;;;;;4.07;2.47;;;6.70;99.90;;;;;;5015423;28;20030;-76
2021/04/12 03:59:01;;;;;;;4.03;2.40;;;6.70;99.90;;;;;;5016512;28;20036;-76
2021/04/12 04:01:50;;;;;;;4.68;2.60;;;6.70;99.90;;;;;;5019956;28;20017;-75
2021/04/12 04:04:44;;;;;;;3.55;2.30;;;6.70;99.90;;;;;;5021639;28;20099;-75
2021/04/12 04:07:46;;;;;;;3.00;2.25;;;6.70;99.90;;;;;;5022602;28;20493;-73
2021/04/12 04:10:18;;;;;;;6.70;2.80;;;6.80;99.90;;;;;;5026156;28;20384;-75
2021/04/12 04:13:04;;;;;;;4.07;2.42;;;6.70;99.90;;;;;;5022410;28;20029;-75
2021/04/12 04:15:43;;;;;;;7.30;2.80;;;6.70;99.90;;;;;;5024150;28;20029;-76
2021/04/12 04:18:29;;;;;;;4.15;2.50;;;6.70;99.90;;;;;;5023667;28;20024;-76
2021/04/12 04:21:24;;;;;;;6.35;2.47;;;6.70;99.90;;;;;;5016367;28;20073;-75
2021/04/12 04:24:27;;;;;;;2.80;1.95;;;6.70;99.90;;;;;;5021146;28;20045;-76
2021/04/12 04:27:19;;;;;;;5.53;2.45;;;6.70;99.90;;;;;;5017218;28;20029;-75
2021/04/12 04:29:51;;;;;;;3.97;2.17;;;6.70;99.90;;;;;;5020886;28;20029;-75
2021/04/12 04:32:35;;;;;;;5.47;3.17;;;6.70;99.90;;;;;;5023154;28;20106;-75
2021/04/12 04:35:23;;;;;;;4.75;2.40;;;6.70;99.90;;;;;;5017404;28;20080;-75
2021/04/12 04:38:20;;;;;;;7.55;2.17;;;6.70;99.90;;;;;;5017551;28;20506;-75
2021/04/12 04:41:05;;;;;;;4.78;2.22;;;6.70;99.90;;;;;;5022938;28;20087;-75
2021/04/12 04:43:56;;;;;;;3.30;2.42;;;6.70;99.90;;;;;;5020759;28;20377;-75
2021/04/12 04:46:36;;;;;;;4.90;2.37;;;6.70;99.90;;;;;;5019705;28;20025;-74
2021/04/12 04:49:56;;;;;;;4.68;2.30;;;6.70;99.90;;;;;;5016901;28;20159;-74
2021/04/12 04:52:50;;;;;;;4.43;2.30;;;6.70;99.90;;;;;;4943052;28;20510;-74
2021/04/12 04:55:59;;;;;;;2.30;2.05;;;6.80;99.90;;;;;;5005940;28;20040;-75
2021/04/12 04:59:00;;;;;;;4.00;2.10;;;6.80;99.90;;;;;;4979933;28;20036;-75
2021/04/12 05:01:44;;;;;;;3.33;2.30;;;6.70;99.90;;;;;;4985199;28;20117;-74
2021/04/12 05:04:33;;;;;;;2.78;2.05;;;6.70;99.90;;;;;;5021653;28;20037;-74
2021/04/12 05:07:16;;;;;;;3.78;2.30;;;6.80;99.90;;;;;;5022340;28;20060;-74
2021/04/12 05:09:54;;;;;;;3.53;2.00;;;6.80;99.90;;;;;;5020948;28;20080;-75
2021/04/12 05:12:38;;;;;;;4.88;2.10;;;6.80;99.90;;;;;;5020196;28;20021;-74
2021/04/12 05:15:14;;;;;;;2.78;1.98;;;6.80;99.90;;;;;;5026704;28;20477;-75
2021/04/12 05:18:11;;;;;;;2.42;1.83;;;6.80;99.90;;;;;;5019490;28;20045;-75
2021/04/12 05:20:54;;;;;;;4.32;2.38;;;6.80;99.90;;;;;;5015212;28;20029;-74
2021/04/12 05:23:38;;;;;;;2.17;1.77;;;6.90;99.90;;;;;;5021199;28;20033;-75
2021/04/12 05:26:15;;;;;;;4.97;2.10;;;6.90;99.90;;;;;;5022643;28;20029;-74
2021/04/12 05:29:18;;;;;;;3.67;2.10;;;6.90;99.90;;;;;;5021703;28;20053;-75
2021/04/12 05:32:15;;;;;;;1.88;1.42;;;7.00;99.90;;;;;;5019733;28;20116;-74
2021/04/12 05:35:04;;;;;;;2.70;1.83;;;7.00;99.90;;;;;;5018807;28;20443;-74
2021/04/12 05:38:00;;;;;;;3.03;1.92;;;7.00;99.90;;;;;;5010819;28;20025;-74
2021/04/12 05:40:48;;;;;;;2.30;1.73;;;7.00;99.90;;;;;;5022947;28;20036;-74
2021/04/12 05:43:21;;;;;;;6.00;1.80;;;7.00;99.90;;;;;;5016813;28;20096;-75
2021/04/12 05:46:15;;;;;;;1.90;1.67;;;7.00;99.90;;;;;;5022126;28;20020;-74
2021/04/12 05:49:05;;;;;;;7.97;1.90;;;7.10;99.90;;;;;;5019905;28;20045;-75
2021/04/12 05:51:53;;;;;;;1.77;1.52;;;7.10;99.90;;;;;;5017858;28;20049;-75
2021/04/12 05:54:34;;;;;;;2.60;1.45;;;7.20;99.90;;;;;;5020639;28;20029;-73
2021/04/12 05:57:14;;;;;;;3.90;1.83;;;7.10;99.90;;;;;;5014730;28;20045;-74
2021/04/12 05:59:42;;;;;;;2.70;1.70;;;7.10;99.90;;;;;;5023267;28;20140;-74
2021/04/12 06:02:51;;;;;;;2.88;1.85;;;7.20;99.90;;;;;;5018798;28;20025;-74
2021/04/12 06:05:26;;;;;;;3.10;1.98;;;7.20;99.90;;;;;;5008824;28;20029;-75
2021/04/12 06:08:36;;;;;;;2.35;1.63;;;7.20;99.90;;;;;;5018280;28;20026;-75
2021/04/12 06:11:34;;;;;;;3.70;1.77;;;7.20;99.90;;;;;;5020373;28;20025;-75
2021/04/12 06:14:21;;;;;;;2.13;1.70;;;7.20;99.90;;;;;;5015468;28;20112;-74
2021/04/12 06:17:07;;;;;;;2.15;1.40;;;7.20;99.90;;;;;;5018433;28;20022;-74
2021/04/12 06:20:06;;;;;;;2.03;1.40;;;7.10;99.90;;;;;;5003391;28;20062;-75
2021/04/12 06:22:39;;;;;;;2.05;1.35;;;7.10;99.90;;;;;;5022282;28;20494;-75
2021/04/12 06:25:17;;;;;;;2.05;1.40;;;7.10;99.90;;;;;;5019254;28;20037;-77
2021/04/12 06:28:16;;;;;;;2.08;1.42;;;7.20;99.90;;;;;;5024673;28;20057;-72
2021/04/12 06:31:22;;;;;;;2.08;1.52;;;7.20;99.90;;;;;;5016951;28;20431;-73
2021/04/12 06:34:12;;;;;;;3.28;1.42;;;7.20;99.90;;;;;;5023723;28;20511;-73
2021/04/12 06:36:46;;;;;;;2.38;1.50;;;7.10;99.90;;;;;;5025567;28;20032;-74
2021/04/12 06:39:51;;;;;;;4.15;1.38;;;7.10;99.90;;;;;;5021389;28;20052;-72
2021/04/12 06:42:20;;;;;;;1.85;1.50;;;7.10;99.90;;;;;;5023416;28;20030;-71
2021/04/12 06:45:12;;;;;;;8.18;1.70;;;7.10;99.90;;;;;;5026370;28;20037;-72
2021/04/12 06:47:56;;;;;;;1.92;1.35;;;7.10;99.90;;;;;;5025345;28;20715;-71
2021/04/12 06:50:41;;;;;;;2.47;1.20;;;7.20;99.90;;;;;;5025885;28;20056;-71
2021/04/12 06:53:33;;;;;;;3.95;1.77;;;7.20;99.90;;;;;;5024740;28;20128;-74
2021/04/12 06:55:58;;;;;;;4.35;1.70;;;7.20;99.90;;;;;;5026911;28;20043;-72
2021/04/12 06:58:24;;;;;;;1.70;1.30;;;7.30;99.90;;;;;;5026519;28;20021;-73
2021/04/12 07:01:23;;;;;;;1.40;1.30;;;7.30;99.90;;;;;;5025183;28;20052;-72
2021/04/12 07:04:44;;;;;;;2.22;1.25;;;7.40;99.90;;;;;;5025930;28;20036;-73
2021/04/12 07:07:49;;;;;;;2.35;1.30;;;7.40;99.90;;;;;;5011640;28;20033;-72
2021/04/12 07:10:51;;;;;;;1.85;1.30;;;7.50;99.90;;;;;;5023595;28;20041;-73
2021/04/12 07:13:28;;;;;;;2.92;1.50;;;7.70;99.90;;;;;;5024190;28;20498;-73
2021/04/12 07:16:45;;;;;;;2.95;1.40;;;7.80;99.90;;;;;;5021832;28;20029;-72
2021/04/12 07:19:48;;;;;;;5.20;1.40;;;8.00;99.90;;;;;;5021003;28;20484;-71
2021/04/12 07:22:38;;;;;;;1.85;1.30;;;8.00;99.90;;;;;;5022850;28;20026;-72
2021/04/12 07:25:25;;;;;;;3.47;1.38;;;8.10;99.90;;;;;;5025030;28;20021;-72
2021/04/12 07:28:22;;;;;;;1.70;1.23;;;8.00;98.00;;;;;;5005053;28;20049;-72
2021/04/12 07:31:24;;;;;;;2.13;1.40;;;8.00;99.00;;;;;;5022791;28;20029;-72
2021/04/12 07:34:05;;;;;;;2.67;1.15;;;7.90;99.30;;;;;;5022208;28;20033;-72
2021/04/12 07:36:54;;;;;;;3.50;1.40;;;8.00;98.50;;;;;;5023755;28;20033;-72
2021/04/12 07:39:57;;;;;;;1.80;1.20;;;8.00;98.40;;;;;;5022885;28;20045;-72
2021/04/12 07:43:20;;;;;;;1.55;1.00;;;8.00;97.90;;;;;;5020322;28;20109;-72
2021/04/12 07:46:25;;;;;;;2.97;1.10;;;7.90;96.50;;;;;;5024775;28;20049;-72
2021/04/12 07:49:36;;;;;;;0.82;0.77;;;8.00;96.60;;;;;;5023560;28;20456;-73
2021/04/12 07:52:58;;;;;;;4.22;1.10;;;8.00;96.40;;;;;;5021233;28;20049;-73
2021/04/12 07:56:18;;;;;;;5.43;1.27;;;8.20;95.90;;;;;;5008692;28;20461;-70
2021/04/12 07:59:19;;;;;;;2.05;1.00;;;8.20;96.70;;;;;;4946428;28;20050;-71
2021/04/12 08:02:02;;;;;;;1.50;0.90;;;8.40;96.20;;;;;;5022864;28;20538;-71
2021/04/12 08:05:23;;;;;;;5.18;1.85;;;8.50;94.60;;;;;;5023669;28;20038;-71
2021/04/12 08:08:32;;;;;;;1.08;0.70;;;8.60;94.30;;;;;;5020879;28;20523;-74
2021/04/12 08:10:57;;;;;;;1.85;1.00;;;8.60;93.50;;;;;;5021135;28;20987;-73
2021/04/12 08:14:04;;;;;;;2.97;1.75;;;8.60;94.60;;;;;;5023572;28;20057;-73
2021/04/12 08:17:01;;;;;;;3.58;1.27;;;8.60;94.10;;;;;;4954837;28;20162;-73
2021/04/12 08:20:01;;;;;;;4.30;1.85;;;8.50;93.20;;;;;;5023831;28;20033;-73
2021/04/12 08:23:00;;;;;;;5.97;1.13;;;8.50;94.10;;;;;;5023401;28;20088;-74
2021/04/12 08:25:51;;;;;;;4.30;1.60;;;8.60;93.20;;;;;;5024864;28;20032;-73
2021/04/12 08:28:42;;;;;;;3.58;2.00;;;8.70;94.10;;;;;;5024282;28;20120;-72
2021/04/12 08:31:38;;;;;;;4.68;2.80;;;8.70;92.80;;;;;;5025245;28;20113;-73
2021/04/12 08:34:38;;;;;;;2.33;1.10;;;8.80;92.30;;;;;;5023680;28;20498;-73
2021/04/12 08:37:29;;;;;;;2.00;1.00;;;8.80;92.60;;;;;;5024047;28;20556;-72
2021/04/12 08:40:22;;;;;;;1.23;0.80;;;8.90;90.90;;;;;;5023309;28;20048;-73
2021/04/12 08:42:56;;;;;;;3.05;1.00;;;8.90;91.10;;;;;;5024691;28;20117;-70
2021/04/12 08:45:40;;;;;;;3.08;1.02;;;8.90;89.70;;;;;;5019098;28;20025;-70
2021/04/12 08:48:35;;;;;;;2.53;1.00;;;9.00;91.20;;;;;;5025989;28;20493;-69
2021/04/12 08:51:22;;;;;;;2.00;0.88;;;9.00;90.40;;;;;;5025486;28;20045;-69
2021/04/12 08:54:07;;;;;;;1.38;0.80;;;9.10;90.60;;;;;;5024515;28;20033;-69
2021/04/12 08:57:02;;;;;;;3.90;0.82;;;9.10;89.50;;;;;;5026819;28;20087;-68
2021/04/12 09:00:02;;;;;;;2.25;0.85;;;9.20;90.70;;;;;;5028440;28;20104;-70
2021/04/12 09:03:21;;;;;;;0.70;0.70;;;9.30;90.70;;;;;;5027448;28;20032;-70
2021/04/12 09:06:24;;;;;;;1.58;1.00;;;9.40;89.90;;;;;;4994542;28;20439;-69
2021/04/12 09:09:27;;;;;;;1.15;0.80;;;9.60;89.70;;;;;;5026609;28;20083;-70
2021/04/12 09:12:25;;;;;;;2.30;1.00;;;9.80;88.70;;;;;;5025749;28;20037;-69
2021/04/12 09:15:09;;;;;;;0.70;0.70;;;9.80;85.00;;;;;;5028615;28;20036;-69
2021/04/12 09:18:04;;;;;;;3.05;1.10;;;9.70;83.50;;;;;;5022178;28;20047;-69
2021/04/12 09:20:54;;;;;;;2.22;1.00;;;9.60;84.10;;;;;;5025031;28;20069;-70
2021/04/12 09:23:57;;;;;;;3.00;1.27;;;9.70;85.60;;;;;;5027022;28;20034;-70
2021/04/12 09:26:39;;;;;;;2.28;1.20;;;9.80;84.30;;;;;;5024758;28;20017;-70
2021/04/12 09:29:36;;;;;;;0.88;0.88;;;9.90;82.90;;;;;;5027035;28;20018;-69
2021/04/12 09:32:27;;;;;;;4.70;1.38;;;10.00;83.00;;;;;;4966123;28;20175;-69
2021/04/12 09:35:37;;;;;;;1.77;1.15;;;9.90;79.80;;;;;;5026652;28;20095;-70
2021/04/12 09:38:29;;;;;;;3.42;1.40;;;9.70;80.00;;;;;;5025307;28;20026;-70
2021/04/12 09:41:24;;;;;;;2.22;1.20;;;9.60;80.90;;;;;;5023852;28;21487;-70
2021/04/12 09:44:10;;;;;;;2.78;1.20;;;9.50;81.20;;;;;;5025986;28;20057;-69
2021/04/12 09:46:55;;;;;;;3.42;1.20;;;9.50;83.00;;;;;;5025116;28;20810;-69
2021/04/12 09:49:41;;;;;;;1.52;1.10;;;9.50;82.00;;;;;;5024586;28;20029;-70
2021/04/12 09:52:48;;;;;;;3.10;1.27;;;9.60;83.10;;;;;;5024252;28;20057;-69
2021/04/12 09:55:51;;;;;;;1.75;1.00;;;9.70;81.60;;;;;;5022788;28;20038;-70
2021/04/12 09:58:54;;;;;;;3.17;1.48;;;9.90;80.50;;;;;;5023439;28;20033;-69
2021/04/12 10:01:41;;;;;;;1.52;1.20;;;10.10;80.30;;;;;;5026199;28;20037;-70
2021/04/12 10:04:39;;;;;;;1.70;1.00;;;10.20;77.70;;;;;;5024718;28;20496;-69
2021/04/12 10:07:26;;;;;;;4.10;1.30;;;10.20;79.10;;;;;;5021652;28;20033;-69
2021/04/12 10:10:01;;;;;;;2.33;1.00;;;10.30;79.90;;;;;;5024862;28;20503;-69
2021/04/12 10:13:07;;;;;;;1.40;1.20;;;10.30;75.60;;;;;;5021835;28;20033;-70
2021/04/12 10:16:11;;;;;;;4.05;1.55;;;10.30;77.00;;;;;;5025629;28;20491;-69
2021/04/12 10:19:15;;;;;;;1.42;1.23;;;10.30;77.10;;;;;;5025305;28;20084;-73
2021/04/12 10:21:44;;;;;;;2.92;1.48;;;10.30;78.00;;;;;;5022236;28;20079;-72
2021/04/12 10:24:30;;;;;;;1.40;1.30;;;10.20;77.20;;;;;;5022525;28;20033;-73
2021/04/12 10:27:05;;;;;;;2.65;1.40;;;10.20;77.10;;;;;;5026797;28;20102;-73
2021/04/12 10:29:40;;;;;;;2.95;1.55;;;10.20;79.00;;;;;;5023369;28;20100;-73
2021/04/12 10:32:13;;;;;;;2.17;1.30;;;10.10;76.70;;;;;;5019214;28;20439;-72
2021/04/12 10:34:48;;;;;;;2.13;1.40;;;10.10;78.00;;;;;;5025166;28;20117;-74
2021/04/12 10:37:28;;;;;;;2.78;1.30;;;10.20;80.60;;;;;;5027029;28;20105;-72
2021/04/12 10:40:04;;;;;;;2.08;1.35;;;10.20;76.00;;;;;;5026520;28;20078;-73
2021/04/12 10:42:39;;;;;;;2.15;1.40;;;10.20;75.60;;;;;;5025467;28;20030;-72
2021/04/12 10:45:20;;;;;;;1.90;1.10;;;10.30;77.30;;;;;;5026396;28;20033;-73
2021/04/12 10:48:11;;;;;;;2.58;1.30;;;10.30;77.80;;;;;;5023677;28;20416;-73
2021/04/12 10:50:59;;;;;;;2.05;1.30;;;10.30;74.60;;;;;;5024218;28;20144;-73
2021/04/12 10:53:37;;;;;;;1.23;1.10;;;10.20;73.40;;;;;;5021532;28;20124;-72
2021/04/12 10:56:09;;;;;;;1.67;1.58;;;10.30;73.90;;;;;;5023911;28;20033;-73
2021/04/12 10:59:24;;;;;;;1.77;1.30;;;10.30;73.10;;;;;;5023744;28;20052;-74
2021/04/12 11:02:07;;;;;;;2.20;1.33;;;10.20;73.20;;;;;;5024776;28;20033;-73
2021/04/12 11:04:54;;;;;;;2.75;1.23;;;10.30;75.20;;;;;;5021586;28;20116;-73
2021/04/12 11:07:46;;;;;;;3.03;1.20;;;10.30;73.10;;;;;;5023895;28;20618;-74
2021/04/12 11:10:43;;;;;;;4.13;1.10;;;10.20;72.70;;;;;;5020280;28;20550;-73
2021/04/12 11:13:21;;;;;;;4.10;1.40;;;10.10;71.20;;;;;;5027038;28;20490;-74
2021/04/12 11:16:28;;;;;;;5.00;1.30;;;10.00;72.20;;;;;;5020714;28;20112;-72
2021/04/12 11:19:13;;;;;;;1.10;1.00;;;9.90;74.00;;;;;;4988678;28;20133;-72
2021/04/12 11:21:47;;;;;;;3.03;1.23;;;10.00;74.10;;;;;;5022001;28;20063;-73
2021/04/12 11:24:33;;;;;;;3.60;1.10;;;10.10;76.70;;;;;;5019957;28;20030;-74
2021/04/12 11:27:45;;;;;;;1.52;1.20;;;10.20;72.90;;;;;;5024769;28;20021;-72
2021/04/12 11:30:41;;;;;;;3.72;1.13;;;10.40;72.00;;;;;;5025575;28;20029;-74
2021/04/12 11:33:12;;;;;;;4.25;1.40;;;10.30;70.20;;;;;;5024008;28;20576;-72
2021/04/12 11:36:16;;;;;;;2.10;1.00;;;10.10;70.80;;;;;;5024497;28;20049;-73
2021/04/12 11:39:08;;;;;;;2.70;1.00;;;10.10;71.10;;;;;;5025450;28;20559;-73
2021/04/12 11:41:51;;;;;;;2.35;1.65;;;10.20;69.50;;;;;;5025244;28;20040;-74
2021/04/12 11:44:43;;;;;;;2.90;1.10;;;10.10;68.30;;;;;;5024510;28;20045;-74
2021/04/12 11:47:48;;;;;;;1.73;1.00;;;10.10;67.90;;;;;;5011428;28;20191;-73
2021/04/12 11:50:42;;;;;;;2.65;1.10;;;10.10;70.00;;;;;;4995857;28;20387;-73
2021/04/12 11:53:21;;;;;;;3.72;1.23;;;10.10;70.80;;;;;;4987936;28;20034;-73
2021/04/12 11:56:25;;;;;;;2.75;1.20;;;10.20;70.90;;;;;;4986057;28;20030;-74
2021/04/12 11:59:00;;;;;;;2.97;1.25;;;10.20;72.30;;;;;;4964068;28;20500;-74
2021/04/12 12:01:35;;;;;;;1.27;0.98;;;10.20;70.90;;;;;;4985996;28;20042;-73
2021/04/12 12:04:15;;;;;;;2.80;1.20;;;10.10;69.80;;;;;;4987443;28;20033;-73
2021/04/12 12:07:04;;;;;;;2.40;1.10;;;10.00;70.20;;;;;;4987504;28;20058;-73
2021/04/12 12:09:47;;;;;;;1.52;1.20;;;9.90;70.00;;;;;;4986706;28;20046;-74
2021/04/12 12:12:25;;;;;;;2.90;1.13;;;10.00;72.20;;;;;;4984055;28;20502;-72
2021/04/12 12:15:15;;;;;;;1.20;0.90;;;10.10;69.10;;;;;;4985074;28;20031;-73
2021/04/12 12:17:45;;;;;;;2.28;1.00;;;10.30;69.50;;;;;;4987632;28;20030;-73
2021/04/12 12:20:21;;;;;;;1.42;1.05;;;10.90;67.70;;;;;;4987025;28;20030;-74
2021/04/12 12:23:02;;;;;;;3.05;1.10;;;11.40;64.00;;;;;;4990059;28;20046;-72
2021/04/12 12:25:45;;;;;;;2.95;1.17;;;11.70;62.50;;;;;;4988863;28;20034;-71
2021/04/12 12:28:41;;;;;;;0.88;0.88;;;11.90;61.60;;;;;;4982093;28;20030;-72
2021/04/12 12:34:41;;;;;;;2.80;1.05;;;12.20;59.20;;;;;;4967324;28;20094;-72
2021/04/12 12:37:31;;;;;;;4.88;1.08;;;12.20;58.90;;;;;;4993421;28;20041;-72
2021/04/12 12:40:29;;;;;;;4.13;1.33;;;12.10;60.00;;;;;;4988969;28;20022;-73
2021/04/12 12:43:07;;;;;;;1.95;0.90;;;11.90;57.00;;;;;;4989112;28;20058;-72
2021/04/12 12:45:39;;;;;;;1.70;1.35;;;11.80;58.10;;;;;;4990599;28;20109;-72
2021/04/12 12:48:28;;;;;;;4.38;1.20;;;11.70;59.00;;;;;;4988043;28;20053;-72
2021/04/12 12:51:07;;;;;;;1.65;0.73;;;11.70;57.80;;;;;;4988887;28;20041;-72
2021/04/12 12:53:37;;;;;;;2.10;1.02;;;11.70;56.80;;;;;;5031528;28;20029;-73
2021/04/12 12:56:20;;;;;;;2.05;1.10;;;11.80;57.10;;;;;;5024406;28;20029;-72
2021/04/12 12:59:24;;;;;;;1.35;0.85;;;11.90;58.90;;;;;;5026241;28;20113;-72
2021/04/12 13:01:50;;;;;;;1.40;0.90;;;11.90;57.80;;;;;;5012402;28;20029;-72
2021/04/12 13:04:22;;;;;;;1.52;0.98;;;11.80;56.30;;;;;;5020997;28;20404;-72
2021/04/12 13:06:49;;;;;;;;;;;11.50;56.20;;;;;;5029768;28;20034;-73
2021/04/12 13:09:31;;;;;;;1.10;0.90;;;11.30;57.80;;;;;;5031218;28;20368;-72
2021/04/12 13:12:04;;;;;;;3.03;1.00;;;11.10;59.20;;;;;;5027062;28;20493;-73
2021/04/12 13:14:42;;;;;;;0.88;0.70;;;11.00;58.30;;;;;;5025769;28;20034;-72
2021/04/12 13:17:30;;;;;;;2.10;0.90;;;10.80;57.80;;;;;;5023566;28;20107;-74
2021/04/12 13:20:00;;;;;;;2.00;1.45;;;10.80;59.20;;;;;;5026452;28;20029;-72
2021/04/12 13:22:32;;;;;;;2.58;1.05;;;10.80;56.60;;;;;;5018275;28;20114;-73
2021/04/12 13:25:37;;;;;;;1.70;1.00;;;10.80;58.50;;;;;;5025892;28;20112;-71
2021/04/12 13:28:17;;;;;;;2.92;0.77;;;10.90;56.60;;;;;;5020965;28;20041;-71
2021/04/12 13:31:12;;;;;;;2.72;1.42;;;11.20;57.60;;;;;;5024876;28;20037;-73
2021/04/12 13:33:44;;;;;;;1.90;0.90;;;11.50;56.00;;;;;;5019618;28;20388;-73
2021/04/12 13:36:17;;;;;;;1.40;1.10;;;11.60;55.20;;;;;;5033098;28;20025;-71
2021/04/12 13:38:45;;;;;;;2.08;0.80;;;11.60;55.90;;;;;;5023705;28;20061;-71
2021/04/12 13:41:23;;;;;;;2.63;1.00;;;11.60;57.80;;;;;;5028247;28;20033;-70
2021/04/12 13:44:04;;;;;;;2.50;1.10;;;11.70;56.70;;;;;;5028802;28;20053;-71
2021/04/12 13:46:35;;;;;;;1.17;0.93;;;11.80;55.40;;;;;;5023947;28;20145;-72
2021/04/12 13:49:06;;;;;;;1.75;1.10;;;11.90;56.30;;;;;;5012176;28;20026;-71
2021/04/12 13:51:38;;;;;;;1.40;0.93;;;11.90;55.30;;;;;;5027507;28;20045;-73
2021/04/12 13:54:11;;;;;;;;;;;12.00;54.70;;;;;;5030239;28;20063;-71
2021/04/12 13:56:49;;;;;;;2.00;0.88;;;12.00;54.10;;;;;;5027794;28;19969;-70
2021/04/12 13:59:27;;;;;;;2.38;1.10;;;11.80;54.40;;;;;;5023832;28;20423;-73
2021/04/12 14:02:00;;;;;;;2.75;1.05;;;11.80;56.70;;;;;;5026108;28;20026;-74
2021/04/12 14:04:34;;;;;;;2.83;0.95;;;11.80;56.10;;;;;;5025685;28;20053;-73
2021/04/12 14:07:30;;;;;;;1.90;0.90;;;11.90;54.60;;;;;;5024077;28;20120;-74
2021/04/12 14:10:24;;;;;;;2.90;1.27;;;11.80;54.70;;;;;;5020855;28;20087;-74
2021/04/12 14:13:09;;;;;;;4.50;1.10;;;12.00;55.20;;;;;;5017813;28;20500;-73
2021/04/12 14:15:51;;;;;;;5.35;0.98;;;12.10;55.00;;;;;;5037972;28;20036;-73
2021/04/12 14:18:41;;;;;;;3.60;0.93;;;12.20;53.70;;;;;;5013306;28;20026;-71
2021/04/12 14:21:22;;;;;;;3.53;1.00;;;12.10;53.50;;;;;;5025223;28;20033;-73
2021/04/12 14:24:01;;;;;;;1.65;0.93;;;12.00;54.00;;;;;;5023755;28;20392;-71
2021/04/12 14:26:41;;;;;;;3.05;0.60;;;12.40;53.90;;;;;;5031056;28;20035;-72
2021/04/12 14:29:18;;;;;;;1.27;0.60;;;12.70;52.40;;;;;;5026552;28;20060;-72
2021/04/12 14:31:44;;;;;;;2.55;0.80;;;12.80;50.30;;;;;;5027621;28;20083;-71
2021/04/12 14:34:18;;;;;;;0.52;0.43;;;12.70;50.50;;;;;;5029804;28;20064;-71
2021/04/12 14:36:44;;;;;;;5.00;0.70;;;12.80;49.60;;;;;;5025059;28;20068;-71
2021/04/12 14:39:28;;;;;;;1.80;0.50;;;12.60;50.40;;;;;;5020829;28;20117;-71
2021/04/12 14:42:07;;;;;;;1.33;0.73;;;12.50;48.60;;;;;;5023237;28;20044;-71
2021/04/12 14:44:43;;;;;;;0.80;0.77;;;12.50;51.00;;;;;;5015355;28;20037;-71
2021/04/12 14:47:22;;;;;;;1.13;0.60;;;12.50;50.50;;;;;;5023147;28;20030;-71
2021/04/12 14:50:11;;;;;;;0.82;0.60;;;12.60;50.10;;;;;;5019746;28;20026;-72